createdAt,value
2022-10-05T00:02:28.921Z,10.05
2022-10-05T00:04:59.363Z,11.57
2022-10-05T00:07:31.099Z,10.45
2022-10-05T00:10:01.306Z,13.27
2022-10-05T00:12:30.790Z,9.88
2022-10-05T00:15:02.791Z,13.25
2022-10-05T00:17:32.427Z,13.30
2022-10-05T00:20:01.636Z,9.63
2022-10-05T00:22:33.599Z,22.27
2022-10-05T00:25:12.356Z,15.60
2022-10-05T00:27:41.550Z,13.30
2022-10-05T00:30:17.879Z,18.77
2022-10-05T00:32:47.664Z,18.70
2022-10-05T00:35:18.141Z,9.60
2022-10-05T00:37:48.405Z,13.05
2022-10-05T00:40:31.553Z,12.20
2022-10-05T00:43:16.344Z,12.88
2022-10-05T00:45:51.395Z,12.23
2022-10-05T00:48:29.085Z,13.73
2022-10-05T00:51:11.744Z,12.48
2022-10-05T00:53:50.195Z,14.85
2022-10-05T00:56:39.159Z,10.37
2022-10-05T00:59:19.035Z,14.95
2022-10-05T01:01:58.728Z,13.25
2022-10-05T01:07:11.480Z,7.38
2022-10-05T01:09:48.936Z,22.80
2022-10-05T01:12:25.194Z,8.00
2022-10-05T01:15:03.527Z,14.68
2022-10-05T01:17:41.966Z,14.93
2022-10-05T01:20:29.734Z,11.57
2022-10-05T01:23:19.940Z,13.57
2022-10-05T01:26:02.414Z,13.07
2022-10-05T01:28:39.094Z,12.75
2022-10-05T01:31:16.014Z,14.38
2022-10-05T01:33:53.060Z,14.45
2022-10-05T01:36:31.493Z,16.02
2022-10-05T01:39:10.743Z,13.73
2022-10-05T01:41:48.020Z,16.48
2022-10-05T01:44:23.392Z,12.15
2022-10-05T01:47:03.266Z,12.32
2022-10-05T01:49:39.381Z,10.73
2022-10-05T01:52:20.244Z,14.48
2022-10-05T01:55:05.661Z,11.80
2022-10-05T01:57:47.926Z,13.25
2022-10-05T02:00:20.063Z,13.82
2022-10-05T02:02:53.895Z,14.95
2022-10-05T02:05:27.588Z,11.00
2022-10-05T02:08:01.467Z,10.38
2022-10-05T02:10:36.549Z,13.60
2022-10-05T02:13:12.440Z,10.30
2022-10-05T02:15:47.257Z,11.70
2022-10-05T02:18:20.949Z,12.32
2022-10-05T02:20:53.579Z,8.57
2022-10-05T02:23:26.927Z,14.82
2022-10-05T02:25:57.828Z,12.77
2022-10-05T02:28:34.688Z,15.60
2022-10-05T02:31:25.306Z,11.70
2022-10-05T02:34:14.352Z,12.30
2022-10-05T02:39:24.765Z,12.38
2022-10-05T02:42:04.256Z,11.60
2022-10-05T02:44:42.724Z,12.23
2022-10-05T02:47:19.435Z,13.75
2022-10-05T02:50:00.184Z,10.13
2022-10-05T02:52:38.738Z,13.35
2022-10-05T02:55:15.925Z,10.20
2022-10-05T02:57:54.292Z,13.93
2022-10-05T03:00:25.531Z,13.02
2022-10-05T03:03:03.109Z,16.17
2022-10-05T03:05:41.931Z,13.88
2022-10-05T03:08:18.353Z,10.48
2022-10-05T03:10:58.979Z,14.52
2022-10-05T03:13:34.575Z,9.65
2022-10-05T03:16:26.448Z,12.80
2022-10-05T03:19:10.271Z,11.07
2022-10-05T03:21:57.716Z,14.65
2022-10-05T03:24:46.082Z,8.93
2022-10-05T03:27:27.012Z,10.73
2022-10-05T03:30:04.149Z,11.43
2022-10-05T03:32:45.657Z,11.23
2022-10-05T03:35:24.341Z,10.27
2022-10-05T03:38:05.425Z,12.63
2022-10-05T03:40:40.391Z,11.77
2022-10-05T03:43:31.424Z,12.32
2022-10-05T03:46:07.725Z,13.07
2022-10-05T03:48:49.908Z,21.05
2022-10-05T03:51:28.223Z,10.23
2022-10-05T03:54:04.883Z,13.80
2022-10-05T03:56:40.808Z,16.20
2022-10-05T03:59:15.946Z,15.50
2022-10-05T04:01:51.007Z,17.08
2022-10-05T04:04:25.376Z,13.18
2022-10-05T04:06:59.182Z,12.98
2022-10-05T04:09:32.893Z,14.15
2022-10-05T04:12:12.015Z,14.98
2022-10-05T04:14:47.231Z,12.10
2022-10-05T04:17:19.489Z,17.33
2022-10-05T04:19:57.892Z,14.35
2022-10-05T04:22:36.646Z,18.17
2022-10-05T04:25:15.994Z,18.45
2022-10-05T04:27:52.313Z,19.05
2022-10-05T04:30:22.363Z,11.38
2022-10-05T04:32:57.297Z,12.82
2022-10-05T04:35:43.754Z,9.60
2022-10-05T04:38:32.784Z,10.90
2022-10-05T04:41:17.485Z,12.15
2022-10-05T04:43:59.993Z,12.50
2022-10-05T04:46:40.068Z,10.52
2022-10-05T04:49:32.590Z,9.60
2022-10-05T04:52:14.993Z,15.05
2022-10-05T04:54:57.793Z,15.00
2022-10-05T04:57:35.594Z,15.45
2022-10-05T05:00:14.007Z,13.55
2022-10-05T05:03:10.134Z,15.48
2022-10-05T05:06:15.239Z,11.52
2022-10-05T05:08:50.080Z,12.35
2022-10-05T05:11:31.811Z,12.23
2022-10-05T05:14:20.763Z,11.27
2022-10-05T05:16:59.071Z,13.18
2022-10-05T05:19:41.276Z,14.27
2022-10-05T05:22:21.625Z,14.18
2022-10-05T05:27:47.996Z,14.68
2022-10-05T05:30:23.180Z,10.27
2022-10-05T05:33:18.797Z,14.15
2022-10-05T05:36:23.866Z,13.77
2022-10-05T05:39:09.415Z,13.10
2022-10-05T05:41:40.710Z,10.90
2022-10-05T05:44:21.765Z,9.30
2022-10-05T05:47:03.944Z,10.77
2022-10-05T05:49:50.992Z,15.80
2022-10-05T05:52:25.489Z,14.02
2022-10-05T05:54:59.575Z,13.55
2022-10-05T05:57:33.677Z,13.55
2022-10-05T06:00:10.673Z,10.45
2022-10-05T06:02:51.912Z,16.30
2022-10-05T06:05:32.532Z,15.90
2022-10-05T06:08:14.244Z,10.38
2022-10-05T06:10:49.724Z,13.20
2022-10-05T06:13:25.447Z,23.08
2022-10-05T06:16:01.063Z,12.02
2022-10-05T06:18:33.645Z,12.43
2022-10-05T06:21:07.984Z,17.40
2022-10-05T06:23:42.642Z,10.85
2022-10-05T06:26:22.626Z,13.18
2022-10-05T06:28:57.800Z,11.15
2022-10-05T06:31:45.513Z,12.10
2022-10-05T06:34:27.952Z,11.98
2022-10-05T06:37:02.891Z,16.15
2022-10-05T06:39:48.746Z,11.43
2022-10-05T06:42:39.074Z,22.63
2022-10-05T06:45:56.661Z,11.63
2022-10-05T06:49:15.072Z,13.45
2022-10-05T06:52:00.686Z,11.60
2022-10-05T06:54:43.985Z,12.20
2022-10-05T06:57:36.716Z,11.57
2022-10-05T07:00:17.376Z,17.73
2022-10-05T07:02:54.678Z,18.40
2022-10-05T07:05:53.213Z,11.32
2022-10-05T07:08:34.949Z,12.77
2022-10-05T07:11:13.370Z,13.88
2022-10-05T07:14:03.563Z,12.48
2022-10-05T07:16:43.054Z,13.13
2022-10-05T07:19:32.124Z,13.50
2022-10-05T07:22:21.592Z,15.25
2022-10-05T07:25:00.433Z,15.10
2022-10-05T07:27:34.282Z,20.35
2022-10-05T07:30:06.805Z,15.98
2022-10-05T07:32:46.209Z,12.85
2022-10-05T07:35:43.025Z,18.77
2022-10-05T07:38:22.187Z,13.85
2022-10-05T07:40:55.384Z,12.48
2022-10-05T07:43:51.426Z,15.52
2022-10-05T07:46:33.271Z,12.45
2022-10-05T07:49:10.758Z,11.68
2022-10-05T07:51:45.187Z,12.80
2022-10-05T07:54:26.777Z,11.25
2022-10-05T07:57:06.595Z,10.30
2022-10-05T07:59:44.213Z,12.73
2022-10-05T08:02:26.837Z,11.98
2022-10-05T08:05:02.753Z,10.75
2022-10-05T08:07:35.581Z,14.05
2022-10-05T08:10:23.035Z,13.18
2022-10-05T08:13:03.518Z,10.85
2022-10-05T08:15:39.921Z,16.80
2022-10-05T08:18:18.073Z,12.73
2022-10-05T08:20:51.163Z,11.02
2022-10-05T08:23:25.913Z,10.75
2022-10-05T08:26:12.303Z,7.35
2022-10-05T08:28:47.123Z,11.68
2022-10-05T08:31:24.012Z,14.48
2022-10-05T08:33:59.834Z,9.70
2022-10-05T08:36:54.114Z,11.90
2022-10-05T08:39:27.009Z,12.40
2022-10-05T08:42:23.288Z,12.63
2022-10-05T08:45:28.130Z,10.43
2022-10-05T08:48:24.708Z,12.25
2022-10-05T08:51:34.638Z,9.73
2022-10-05T08:54:44.225Z,12.32
2022-10-05T08:57:47.593Z,12.57
2022-10-05T09:00:19.898Z,11.35
2022-10-05T09:03:47.754Z,13.00
2022-10-05T09:07:10.941Z,12.15
2022-10-05T09:10:04.545Z,11.80
2022-10-05T09:13:18.571Z,9.35
2022-10-05T09:16:24.048Z,10.35
2022-10-05T09:19:16.814Z,15.70
2022-10-05T09:21:57.676Z,13.65
2022-10-05T09:24:42.885Z,13.32
2022-10-05T09:27:18.115Z,16.65
2022-10-05T09:30:21.433Z,13.50
2022-10-05T09:33:18.769Z,13.23
2022-10-05T09:36:17.399Z,9.07
2022-10-05T09:39:28.231Z,14.40
2022-10-05T09:42:10.286Z,13.45
2022-10-05T09:45:31.378Z,13.30
2022-10-05T09:48:37.943Z,15.77
2022-10-05T09:51:44.208Z,11.90
2022-10-05T09:54:44.238Z,9.38
2022-10-05T09:57:55.048Z,8.60
2022-10-05T10:00:34.386Z,9.93
2022-10-05T10:03:33.477Z,10.77
2022-10-05T10:06:13.816Z,9.32
2022-10-05T10:09:00.748Z,15.65
2022-10-05T10:12:00.918Z,14.77
2022-10-05T10:14:59.335Z,14.48
2022-10-05T10:18:04.342Z,16.15
2022-10-05T10:20:45.116Z,12.68
2022-10-05T10:23:59.088Z,17.42
2022-10-05T10:27:08.970Z,12.05
2022-10-05T10:30:19.904Z,12.02
2022-10-05T10:33:15.589Z,12.07
2022-10-05T10:35:54.854Z,14.13
2022-10-05T10:38:33.338Z,12.10
2022-10-05T10:41:42.139Z,13.82
2022-10-05T10:44:49.378Z,9.75
2022-10-05T10:47:47.992Z,11.90
2022-10-05T10:50:48.773Z,14.20
2022-10-05T10:53:44.616Z,11.05
2022-10-05T10:56:34.667Z,13.13
2022-10-05T10:59:44.402Z,11.13
2022-10-05T11:02:52.285Z,14.45
2022-10-05T11:05:48.858Z,15.03
2022-10-05T11:08:47.520Z,11.20
2022-10-05T11:11:37.777Z,12.52
2022-10-05T11:14:34.861Z,10.02
2022-10-05T11:17:31.728Z,10.68
2022-10-05T11:20:22.299Z,13.43
2022-10-05T11:23:05.122Z,12.70
2022-10-05T11:25:51.865Z,10.23
2022-10-05T11:28:43.834Z,10.00
2022-10-05T11:31:44.942Z,12.13
2022-10-05T11:34:58.243Z,10.05
2022-10-05T11:37:58.494Z,13.65
2022-10-05T11:40:53.416Z,13.63
2022-10-05T11:43:54.196Z,10.57
2022-10-05T11:46:29.097Z,10.55
2022-10-05T11:49:25.836Z,11.75
2022-10-05T11:52:07.844Z,9.27
2022-10-05T11:55:15.870Z,12.55
2022-10-05T11:57:50.571Z,10.75
2022-10-05T12:00:21.091Z,10.60
2022-10-05T12:03:12.456Z,9.10
2022-10-05T12:06:03.039Z,10.60
2022-10-05T12:08:41.790Z,12.77
2022-10-05T12:11:30.139Z,12.45
2022-10-05T12:14:06.925Z,15.18
2022-10-05T12:16:46.472Z,9.20
2022-10-05T12:19:22.065Z,8.25
2022-10-05T12:21:59.935Z,8.38
2022-10-05T12:24:48.046Z,13.20
2022-10-05T12:27:21.606Z,9.38
2022-10-05T12:29:57.571Z,11.50
2022-10-05T12:32:35.473Z,12.40
2022-10-05T12:35:29.727Z,12.18
2022-10-05T12:38:21.063Z,11.88
2022-10-05T12:41:00.239Z,12.07
2022-10-05T12:43:39.841Z,11.13
2022-10-05T12:46:19.225Z,14.05
2022-10-05T12:51:36.761Z,12.02
2022-10-05T12:54:17.902Z,15.55
2022-10-05T12:56:55.528Z,13.75
2022-10-05T12:59:41.168Z,10.40
2022-10-05T13:02:24.875Z,10.68
2022-10-05T13:05:00.963Z,10.13
2022-10-05T13:07:46.864Z,11.40
2022-10-05T13:10:29.229Z,10.07
2022-10-05T13:13:21.704Z,13.00
2022-10-05T13:15:57.636Z,10.38
2022-10-05T13:18:36.359Z,13.57
2022-10-05T13:21:11.548Z,14.63
2022-10-05T13:23:49.487Z,9.15
2022-10-05T13:26:24.733Z,15.63
2022-10-05T13:29:01.720Z,12.85
2022-10-05T13:31:35.200Z,8.82
2022-10-05T13:34:24.723Z,9.93
2022-10-05T13:37:05.950Z,9.00
2022-10-05T13:39:48.245Z,12.52
2022-10-05T13:42:20.063Z,10.40
2022-10-05T13:44:55.481Z,11.20
2022-10-05T13:47:32.747Z,8.85
2022-10-05T13:50:04.906Z,9.25
2022-10-05T13:52:49.012Z,13.63
2022-10-05T13:55:34.999Z,10.50
2022-10-05T13:58:08.591Z,9.15
2022-10-05T14:00:47.502Z,6.70
2022-10-05T14:03:28.875Z,11.05
2022-10-05T14:06:00.055Z,9.50
2022-10-05T14:08:33.025Z,9.60
2022-10-05T14:11:22.601Z,7.78
2022-10-05T14:13:53.125Z,6.05
2022-10-05T14:16:25.481Z,9.85
2022-10-05T14:18:59.310Z,9.68
2022-10-05T14:21:32.248Z,9.85
2022-10-05T14:24:32.165Z,10.38
2022-10-05T14:27:21.632Z,11.48
2022-10-05T14:29:59.860Z,9.77
2022-10-05T14:32:33.274Z,10.32
2022-10-05T14:35:14.806Z,15.30
2022-10-05T14:37:52.518Z,10.40
2022-10-05T14:40:36.559Z,13.32
2022-10-05T14:43:20.065Z,7.88
2022-10-05T14:45:57.263Z,12.32
2022-10-05T14:48:30.106Z,8.75
2022-10-05T14:51:03.468Z,13.85
2022-10-05T14:53:40.580Z,13.93
2022-10-05T14:56:30.194Z,10.45
2022-10-05T14:59:22.268Z,9.20
2022-10-05T15:01:58.902Z,12.10
2022-10-05T15:04:43.576Z,10.55
2022-10-05T15:07:24.041Z,13.13
2022-10-05T15:10:11.360Z,10.70
2022-10-05T15:12:46.832Z,12.93
2022-10-05T15:15:27.615Z,16.30
2022-10-05T15:18:01.965Z,18.33
2022-10-05T15:20:43.862Z,13.65
2022-10-05T15:23:24.902Z,14.10
2022-10-05T15:26:07.957Z,12.05
2022-10-05T15:28:48.649Z,13.45
2022-10-05T15:31:27.865Z,13.00
2022-10-05T15:34:02.659Z,11.32
2022-10-05T15:36:43.141Z,12.02
2022-10-05T15:39:23.376Z,14.77
2022-10-05T15:42:03.104Z,13.90
2022-10-05T15:44:54.070Z,13.52
2022-10-05T15:47:31.703Z,12.82
2022-10-05T15:50:10.750Z,15.52
2022-10-05T15:52:49.812Z,12.35
2022-10-05T15:55:32.268Z,17.13
2022-10-05T15:58:25.393Z,13.43
2022-10-05T16:00:59.842Z,12.90
2022-10-05T16:03:40.464Z,12.55
2022-10-05T16:06:33.411Z,12.20
2022-10-05T16:09:20.565Z,17.73
2022-10-05T16:12:06.193Z,17.63
2022-10-05T16:14:46.933Z,14.50
2022-10-05T16:17:34.724Z,14.50
2022-10-05T16:20:26.165Z,17.23
2022-10-05T16:23:03.331Z,17.15
2022-10-05T16:25:46.529Z,19.08
2022-10-05T16:28:29.953Z,19.85
2022-10-05T16:31:07.477Z,16.00
2022-10-05T16:33:54.462Z,18.42
2022-10-05T16:36:40.432Z,19.95
2022-10-05T16:39:18.242Z,21.60
2022-10-05T16:41:57.216Z,15.38
2022-10-05T16:44:39.722Z,18.80
2022-10-05T16:47:36.531Z,17.55
2022-10-05T16:50:18.915Z,18.05
2022-10-05T16:52:55.878Z,14.15
2022-10-05T16:55:33.659Z,14.55
2022-10-05T16:58:13.111Z,13.82
2022-10-05T17:01:01.956Z,18.08
2022-10-05T17:03:44.120Z,18.90
2022-10-05T17:06:38.164Z,23.48
2022-10-05T17:09:38.113Z,17.52
2022-10-05T17:12:34.784Z,22.73
2022-10-05T17:15:29.851Z,21.63
2022-10-05T17:18:28.728Z,24.27
2022-10-05T17:21:08.000Z,18.48
2022-10-05T17:23:55.210Z,18.13
2022-10-05T17:26:57.284Z,15.57
2022-10-05T17:29:32.515Z,19.45
2022-10-05T17:32:33.761Z,19.23
2022-10-05T17:35:51.912Z,16.92
2022-10-05T17:38:24.118Z,18.25
2022-10-05T17:41:19.708Z,13.63
2022-10-05T17:44:19.535Z,18.95
2022-10-05T17:46:52.191Z,18.67
2022-10-05T17:49:47.922Z,18.17
2022-10-05T17:52:43.278Z,20.52
2022-10-05T17:55:32.575Z,21.85
2022-10-05T17:58:17.816Z,19.73
2022-10-05T18:01:14.475Z,22.17
2022-10-05T18:03:45.652Z,21.42
2022-10-05T18:06:41.740Z,21.15
2022-10-05T18:09:36.320Z,18.80
2022-10-05T18:12:43.195Z,17.38
2022-10-05T18:15:46.615Z,21.83
2022-10-05T18:18:54.696Z,20.83
2022-10-05T18:21:49.225Z,23.10
2022-10-05T18:24:32.471Z,22.50
2022-10-05T18:27:34.378Z,31.33
2022-10-05T18:30:17.851Z,29.05
2022-10-05T18:33:23.132Z,21.25
2022-10-05T18:36:01.955Z,24.58
2022-10-05T18:38:51.341Z,24.38
2022-10-05T18:41:34.031Z,25.40
2022-10-05T18:44:23.569Z,31.70
2022-10-05T18:47:00.435Z,26.40
2022-10-05T18:49:50.617Z,27.65
2022-10-05T18:52:29.953Z,25.70
2022-10-05T18:58:05.643Z,21.35
2022-10-05T19:00:53.294Z,28.25
2022-10-05T19:03:30.674Z,24.33
2022-10-05T19:06:13.414Z,30.70
2022-10-05T19:08:52.173Z,26.98
2022-10-05T19:11:30.175Z,24.58
2022-10-05T19:17:00.770Z,23.63
2022-10-05T19:19:50.308Z,29.02
2022-10-05T19:22:29.592Z,28.52
2022-10-05T19:27:57.953Z,27.80
2022-10-05T19:30:45.420Z,29.88
2022-10-05T19:33:32.341Z,23.80
2022-10-05T19:36:25.428Z,26.08
2022-10-05T19:39:04.531Z,31.50
2022-10-05T19:41:47.739Z,29.00
2022-10-05T19:44:29.902Z,24.35
2022-10-05T19:47:06.848Z,25.52
2022-10-05T19:49:44.476Z,26.73
2022-10-05T19:52:22.257Z,25.50
2022-10-05T19:55:04.691Z,24.10
2022-10-05T19:57:38.385Z,25.02
2022-10-05T20:00:16.825Z,24.08
2022-10-05T20:02:54.008Z,21.83
2022-10-05T20:05:24.100Z,28.45
2022-10-05T20:07:53.543Z,25.42
2022-10-05T20:10:29.170Z,25.05
2022-10-05T20:13:00.350Z,22.50
2022-10-05T20:15:49.265Z,24.67
2022-10-05T20:18:56.604Z,24.27
2022-10-05T20:21:46.113Z,24.00
2022-10-05T20:24:18.461Z,19.83
2022-10-05T20:27:06.186Z,22.52
2022-10-05T20:29:37.747Z,31.57
2022-10-05T20:32:10.037Z,23.42
2022-10-05T20:34:42.753Z,22.13
2022-10-05T20:37:13.680Z,25.25
2022-10-05T20:39:43.634Z,24.67
2022-10-05T20:44:42.088Z,21.92
2022-10-05T20:47:11.544Z,24.35
2022-10-05T20:49:42.660Z,22.55
2022-10-05T20:52:15.202Z,25.83
2022-10-05T20:57:20.907Z,21.65
2022-10-05T20:59:50.153Z,24.17
2022-10-05T21:02:20.134Z,26.73
2022-10-05T21:04:50.875Z,22.23
2022-10-05T21:07:21.111Z,26.83
2022-10-05T21:09:51.612Z,21.80
2022-10-05T21:12:20.930Z,23.77
2022-10-05T21:14:52.624Z,25.20
2022-10-05T21:17:22.028Z,22.27
2022-10-05T21:19:52.700Z,22.02
2022-10-05T21:22:22.524Z,22.58
2022-10-05T21:24:51.547Z,26.27
2022-10-05T21:27:20.652Z,23.48
2022-10-05T21:29:49.871Z,21.77
2022-10-05T21:32:18.781Z,28.13
2022-10-05T21:34:47.931Z,23.85
2022-10-05T21:37:19.925Z,23.42
2022-10-05T21:39:49.240Z,23.35
2022-10-05T21:42:18.158Z,21.80
2022-10-05T21:44:47.280Z,25.83
2022-10-05T21:47:16.521Z,22.73
2022-10-05T21:49:45.669Z,26.63
2022-10-05T21:52:15.280Z,25.10
2022-10-05T21:54:46.391Z,24.15
2022-10-05T21:57:15.975Z,20.00
2022-10-05T21:59:45.551Z,26.15
2022-10-05T22:04:43.585Z,26.80
2022-10-05T22:07:19.176Z,26.23
2022-10-05T22:09:50.775Z,25.45
2022-10-05T22:12:20.908Z,21.88
2022-10-05T22:14:50.376Z,25.90
2022-10-05T22:17:27.968Z,30.73
2022-10-05T22:19:58.196Z,29.35
2022-10-05T22:22:28.506Z,25.73
2022-10-05T22:24:59.014Z,31.27
2022-10-05T22:27:30.801Z,26.48
2022-10-05T22:30:01.156Z,22.92
2022-10-05T22:32:30.486Z,25.70
2022-10-05T22:34:59.888Z,22.23
2022-10-05T22:37:29.094Z,25.60
2022-10-05T22:39:59.838Z,24.70
2022-10-05T22:42:28.894Z,19.27
2022-10-05T22:44:58.144Z,19.52
2022-10-05T22:47:27.418Z,25.08
2022-10-05T22:49:56.408Z,24.40
2022-10-05T22:52:25.518Z,20.77
2022-10-05T22:54:54.945Z,20.27
2022-10-05T22:57:26.928Z,24.60
2022-10-05T22:59:56.424Z,20.20
2022-10-05T23:02:25.691Z,22.75
2022-10-05T23:04:55.034Z,22.00
2022-10-05T23:07:24.218Z,26.88
2022-10-05T23:09:53.288Z,20.23
2022-10-05T23:12:22.660Z,23.88
2022-10-05T23:14:53.461Z,27.95
2022-10-05T23:17:22.524Z,23.33
2022-10-05T23:19:51.804Z,24.27
2022-10-05T23:24:51.038Z,22.33
2022-10-05T23:27:20.150Z,22.55
2022-10-05T23:29:49.539Z,26.15
2022-10-05T23:32:19.914Z,26.20
2022-10-05T23:34:49.024Z,25.55
2022-10-05T23:37:19.688Z,24.67
2022-10-05T23:39:48.686Z,24.55
2022-10-05T23:42:17.770Z,23.70
2022-10-05T23:44:46.946Z,32.05
2022-10-05T23:47:16.160Z,24.05
2022-10-05T23:49:46.518Z,28.08
2022-10-05T23:52:15.715Z,22.33
2022-10-05T23:54:44.682Z,23.63
2022-10-05T23:57:18.054Z,25.30
2022-10-05T23:59:50.335Z,26.20
